sensor_id;sensor_type;location;lat;lon;timestamp;P1;durP1;ratioP1;P2;durP2;ratioP2
73283;SDS011;61519;60.050;18.582;2022-09-28T00:01:52;7.13;;;3.10;;
73283;SDS011;61519;60.050;18.582;2022-09-28T00:04:18;5.85;;;3.10;;
73283;SDS011;61519;60.050;18.582;2022-09-28T00:06:44;8.27;;;3.42;;
73283;SDS011;61519;60.050;18.582;2022-09-28T00:09:11;6.72;;;2.90;;
73283;SDS011;61519;60.050;18.582;2022-09-28T00:11:37;8.80;;;3.15;;
73283;SDS011;61519;60.050;18.582;2022-09-28T00:14:02;7.80;;;3.40;;
73283;SDS011;61519;60.050;18.582;2022-09-28T00:16:33;6.97;;;3.10;;
73283;SDS011;61519;60.050;18.582;2022-09-28T00:19:00;7.38;;;3.42;;
73283;SDS011;61519;60.050;18.582;2022-09-28T00:21:30;5.80;;;3.13;;
73283;SDS011;61519;60.050;18.582;2022-09-28T00:23:58;7.15;;;3.35;;
73283;SDS011;61519;60.050;18.582;2022-09-28T00:26:37;8.40;;;3.47;;
73283;SDS011;61519;60.050;18.582;2022-09-28T00:31:46;6.77;;;3.03;;
73283;SDS011;61519;60.050;18.582;2022-09-28T00:34:11;8.75;;;3.10;;
73283;SDS011;61519;60.050;18.582;2022-09-28T00:36:37;8.48;;;3.53;;
73283;SDS011;61519;60.050;18.582;2022-09-28T00:39:07;7.00;;;3.03;;
73283;SDS011;61519;60.050;18.582;2022-09-28T00:41:33;8.07;;;3.00;;
73283;SDS011;61519;60.050;18.582;2022-09-28T00:46:46;6.03;;;3.03;;
73283;SDS011;61519;60.050;18.582;2022-09-28T00:49:13;6.55;;;3.30;;
73283;SDS011;61519;60.050;18.582;2022-09-28T00:51:40;6.72;;;3.08;;
73283;SDS011;61519;60.050;18.582;2022-09-28T00:54:07;8.98;;;3.22;;
73283;SDS011;61519;60.050;18.582;2022-09-28T00:56:33;7.47;;;3.33;;
73283;SDS011;61519;60.050;18.582;2022-09-28T00:59:00;9.30;;;3.20;;
73283;SDS011;61519;60.050;18.582;2022-09-28T01:01:28;10.13;;;3.67;;
73283;SDS011;61519;60.050;18.582;2022-09-28T01:03:54;8.48;;;3.25;;
73283;SDS011;61519;60.050;18.582;2022-09-28T01:06:23;5.38;;;3.22;;
73283;SDS011;61519;60.050;18.582;2022-09-28T01:08:52;7.43;;;3.40;;
73283;SDS011;61519;60.050;18.582;2022-09-28T01:11:18;14.57;;;3.50;;
73283;SDS011;61519;60.050;18.582;2022-09-28T01:13:45;8.82;;;3.40;;
73283;SDS011;61519;60.050;18.582;2022-09-28T01:16:27;8.55;;;3.45;;
73283;SDS011;61519;60.050;18.582;2022-09-28T01:21:49;5.80;;;3.40;;
73283;SDS011;61519;60.050;18.582;2022-09-28T01:26:54;8.80;;;3.17;;
73283;SDS011;61519;60.050;18.582;2022-09-28T01:29:25;8.85;;;3.47;;
73283;SDS011;61519;60.050;18.582;2022-09-28T01:35:02;7.60;;;3.20;;
73283;SDS011;61519;60.050;18.582;2022-09-28T01:37:34;6.88;;;3.40;;
73283;SDS011;61519;60.050;18.582;2022-09-28T01:40:11;11.70;;;3.20;;
73283;SDS011;61519;60.050;18.582;2022-09-28T01:42:38;7.25;;;3.50;;
73283;SDS011;61519;60.050;18.582;2022-09-28T01:45:06;12.25;;;3.88;;
73283;SDS011;61519;60.050;18.582;2022-09-28T01:47:36;9.00;;;3.50;;
73283;SDS011;61519;60.050;18.582;2022-09-28T01:50:08;9.25;;;2.95;;
73283;SDS011;61519;60.050;18.582;2022-09-28T01:52:39;10.50;;;2.87;;
73283;SDS011;61519;60.050;18.582;2022-09-28T01:55:09;7.43;;;3.22;;
73283;SDS011;61519;60.050;18.582;2022-09-28T01:57:47;10.85;;;3.03;;
73283;SDS011;61519;60.050;18.582;2022-09-28T02:00:16;12.07;;;3.10;;
73283;SDS011;61519;60.050;18.582;2022-09-28T02:05:39;7.87;;;3.10;;
73283;SDS011;61519;60.050;18.582;2022-09-28T02:15:54;5.43;;;2.60;;
73283;SDS011;61519;60.050;18.582;2022-09-28T02:18:29;9.07;;;3.07;;
73283;SDS011;61519;60.050;18.582;2022-09-28T02:20:57;6.53;;;2.67;;
73283;SDS011;61519;60.050;18.582;2022-09-28T02:23:25;8.75;;;2.75;;
73283;SDS011;61519;60.050;18.582;2022-09-28T02:25:56;7.75;;;3.10;;
73283;SDS011;61519;60.050;18.582;2022-09-28T02:28:25;6.97;;;2.33;;
73283;SDS011;61519;60.050;18.582;2022-09-28T02:30:51;8.82;;;2.60;;
73283;SDS011;61519;60.050;18.582;2022-09-28T02:35:53;7.78;;;2.80;;
73283;SDS011;61519;60.050;18.582;2022-09-28T02:38:19;7.70;;;2.60;;
73283;SDS011;61519;60.050;18.582;2022-09-28T02:40:48;7.43;;;2.67;;
73283;SDS011;61519;60.050;18.582;2022-09-28T02:43:26;8.20;;;2.30;;
73283;SDS011;61519;60.050;18.582;2022-09-28T02:46:28;7.82;;;2.38;;
73283;SDS011;61519;60.050;18.582;2022-09-28T02:51:48;6.40;;;2.20;;
73283;SDS011;61519;60.050;18.582;2022-09-28T02:54:36;7.60;;;2.35;;
73283;SDS011;61519;60.050;18.582;2022-09-28T03:02:58;5.43;;;2.25;;
73283;SDS011;61519;60.050;18.582;2022-09-28T03:06:00;7.95;;;2.22;;
73283;SDS011;61519;60.050;18.582;2022-09-28T03:11:13;4.93;;;2.10;;
73283;SDS011;61519;60.050;18.582;2022-09-28T03:13:43;6.15;;;1.88;;
73283;SDS011;61519;60.050;18.582;2022-09-28T03:16:18;6.18;;;1.90;;
73283;SDS011;61519;60.050;18.582;2022-09-28T03:18:44;5.30;;;1.88;;
73283;SDS011;61519;60.050;18.582;2022-09-28T03:21:10;4.28;;;1.73;;
73283;SDS011;61519;60.050;18.582;2022-09-28T03:23:36;6.80;;;2.20;;
73283;SDS011;61519;60.050;18.582;2022-09-28T03:26:02;4.43;;;1.77;;
73283;SDS011;61519;60.050;18.582;2022-09-28T03:28:28;5.30;;;1.92;;
73283;SDS011;61519;60.050;18.582;2022-09-28T03:30:53;5.10;;;2.00;;
73283;SDS011;61519;60.050;18.582;2022-09-28T03:33:20;5.97;;;2.15;;
73283;SDS011;61519;60.050;18.582;2022-09-28T03:35:46;4.57;;;2.00;;
73283;SDS011;61519;60.050;18.582;2022-09-28T03:38:12;4.83;;;1.80;;
73283;SDS011;61519;60.050;18.582;2022-09-28T03:40:38;7.07;;;1.80;;
73283;SDS011;61519;60.050;18.582;2022-09-28T03:43:04;5.80;;;2.50;;
73283;SDS011;61519;60.050;18.582;2022-09-28T03:45:29;8.00;;;2.15;;
73283;SDS011;61519;60.050;18.582;2022-09-28T03:47:55;4.47;;;1.90;;
73283;SDS011;61519;60.050;18.582;2022-09-28T03:50:20;6.07;;;1.90;;
73283;SDS011;61519;60.050;18.582;2022-09-28T03:52:46;5.80;;;1.60;;
73283;SDS011;61519;60.050;18.582;2022-09-28T03:55:11;4.57;;;1.80;;
73283;SDS011;61519;60.050;18.582;2022-09-28T03:57:37;5.85;;;1.67;;
73283;SDS011;61519;60.050;18.582;2022-09-28T04:00:05;4.93;;;1.90;;
73283;SDS011;61519;60.050;18.582;2022-09-28T04:02:33;6.70;;;1.90;;
73283;SDS011;61519;60.050;18.582;2022-09-28T04:04:59;5.18;;;1.83;;
73283;SDS011;61519;60.050;18.582;2022-09-28T04:07:25;5.40;;;1.67;;
73283;SDS011;61519;60.050;18.582;2022-09-28T04:09:50;5.60;;;2.10;;
73283;SDS011;61519;60.050;18.582;2022-09-28T04:12:17;4.90;;;1.95;;
73283;SDS011;61519;60.050;18.582;2022-09-28T04:14:42;6.60;;;2.20;;
73283;SDS011;61519;60.050;18.582;2022-09-28T04:17:08;4.85;;;2.05;;
73283;SDS011;61519;60.050;18.582;2022-09-28T04:19:33;5.53;;;1.40;;
73283;SDS011;61519;60.050;18.582;2022-09-28T04:22:00;4.83;;;1.73;;
73283;SDS011;61519;60.050;18.582;2022-09-28T04:24:25;6.95;;;1.95;;
73283;SDS011;61519;60.050;18.582;2022-09-28T04:26:51;4.50;;;1.63;;
73283;SDS011;61519;60.050;18.582;2022-09-28T04:29:36;4.03;;;1.45;;
73283;SDS011;61519;60.050;18.582;2022-09-28T04:32:02;7.83;;;1.83;;
73283;SDS011;61519;60.050;18.582;2022-09-28T04:34:29;4.75;;;1.67;;
73283;SDS011;61519;60.050;18.582;2022-09-28T04:36:55;7.18;;;1.65;;
73283;SDS011;61519;60.050;18.582;2022-09-28T04:39:20;5.80;;;1.80;;
73283;SDS011;61519;60.050;18.582;2022-09-28T04:41:46;6.77;;;1.80;;
73283;SDS011;61519;60.050;18.582;2022-09-28T04:44:12;4.88;;;1.42;;
73283;SDS011;61519;60.050;18.582;2022-09-28T04:46:37;5.20;;;1.50;;
73283;SDS011;61519;60.050;18.582;2022-09-28T04:49:03;6.03;;;1.80;;
73283;SDS011;61519;60.050;18.582;2022-09-28T04:51:31;6.37;;;2.10;;
73283;SDS011;61519;60.050;18.582;2022-09-28T04:53:57;4.85;;;1.60;;
73283;SDS011;61519;60.050;18.582;2022-09-28T04:56:23;4.13;;;1.55;;
73283;SDS011;61519;60.050;18.582;2022-09-28T04:58:48;6.73;;;1.67;;
73283;SDS011;61519;60.050;18.582;2022-09-28T05:01:14;4.23;;;1.70;;
73283;SDS011;61519;60.050;18.582;2022-09-28T05:03:41;8.95;;;1.88;;
73283;SDS011;61519;60.050;18.582;2022-09-28T05:06:07;6.30;;;1.50;;
73283;SDS011;61519;60.050;18.582;2022-09-28T05:08:33;3.83;;;1.35;;
73283;SDS011;61519;60.050;18.582;2022-09-28T05:11:00;4.93;;;1.60;;
73283;SDS011;61519;60.050;18.582;2022-09-28T05:13:32;4.93;;;1.50;;
73283;SDS011;61519;60.050;18.582;2022-09-28T05:15:59;5.88;;;1.77;;
73283;SDS011;61519;60.050;18.582;2022-09-28T05:18:25;3.42;;;1.30;;
73283;SDS011;61519;60.050;18.582;2022-09-28T05:20:51;3.80;;;1.50;;
73283;SDS011;61519;60.050;18.582;2022-09-28T05:23:16;5.53;;;1.60;;
73283;SDS011;61519;60.050;18.582;2022-09-28T05:25:42;4.03;;;1.20;;
73283;SDS011;61519;60.050;18.582;2022-09-28T05:28:09;3.83;;;1.30;;
73283;SDS011;61519;60.050;18.582;2022-09-28T05:30:35;6.07;;;1.35;;
73283;SDS011;61519;60.050;18.582;2022-09-28T05:33:01;4.27;;;1.60;;
73283;SDS011;61519;60.050;18.582;2022-09-28T05:35:27;3.10;;;1.20;;
73283;SDS011;61519;60.050;18.582;2022-09-28T05:37:53;6.13;;;1.48;;
73283;SDS011;61519;60.050;18.582;2022-09-28T05:40:20;4.67;;;1.17;;
73283;SDS011;61519;60.050;18.582;2022-09-28T05:42:45;5.38;;;1.38;;
73283;SDS011;61519;60.050;18.582;2022-09-28T05:45:11;4.63;;;1.27;;
73283;SDS011;61519;60.050;18.582;2022-09-28T05:47:38;3.83;;;1.10;;
73283;SDS011;61519;60.050;18.582;2022-09-28T05:50:04;4.00;;;1.20;;
73283;SDS011;61519;60.050;18.582;2022-09-28T05:52:35;5.55;;;1.20;;
73283;SDS011;61519;60.050;18.582;2022-09-28T05:55:04;4.32;;;1.38;;
73283;SDS011;61519;60.050;18.582;2022-09-28T05:57:31;3.67;;;1.20;;
73283;SDS011;61519;60.050;18.582;2022-09-28T05:59:56;4.90;;;1.20;;
73283;SDS011;61519;60.050;18.582;2022-09-28T06:02:22;3.50;;;1.13;;
73283;SDS011;61519;60.050;18.582;2022-09-28T06:04:47;4.95;;;1.20;;
73283;SDS011;61519;60.050;18.582;2022-09-28T06:07:15;3.85;;;1.50;;
73283;SDS011;61519;60.050;18.582;2022-09-28T06:09:41;4.68;;;1.00;;
73283;SDS011;61519;60.050;18.582;2022-09-28T06:12:06;4.87;;;1.40;;
73283;SDS011;61519;60.050;18.582;2022-09-28T06:14:32;4.00;;;1.17;;
73283;SDS011;61519;60.050;18.582;2022-09-28T06:16:57;3.92;;;1.10;;
73283;SDS011;61519;60.050;18.582;2022-09-28T06:19:23;4.27;;;1.23;;
73283;SDS011;61519;60.050;18.582;2022-09-28T06:21:48;3.67;;;1.23;;
73283;SDS011;61519;60.050;18.582;2022-09-28T06:24:14;4.10;;;1.00;;
73283;SDS011;61519;60.050;18.582;2022-09-28T06:26:39;5.20;;;1.30;;
73283;SDS011;61519;60.050;18.582;2022-09-28T06:29:05;4.77;;;1.23;;
73283;SDS011;61519;60.050;18.582;2022-09-28T06:31:30;4.50;;;1.30;;
73283;SDS011;61519;60.050;18.582;2022-09-28T06:33:56;3.70;;;1.27;;
73283;SDS011;61519;60.050;18.582;2022-09-28T06:36:21;3.58;;;1.00;;
73283;SDS011;61519;60.050;18.582;2022-09-28T06:38:47;3.90;;;1.05;;
73283;SDS011;61519;60.050;18.582;2022-09-28T06:41:13;3.88;;;1.40;;
73283;SDS011;61519;60.050;18.582;2022-09-28T06:43:39;3.70;;;1.20;;
73283;SDS011;61519;60.050;18.582;2022-09-28T06:46:04;4.05;;;1.48;;
73283;SDS011;61519;60.050;18.582;2022-09-28T06:48:31;3.13;;;0.93;;
73283;SDS011;61519;60.050;18.582;2022-09-28T06:50:58;4.30;;;1.00;;
73283;SDS011;61519;60.050;18.582;2022-09-28T06:53:25;4.22;;;0.90;;
73283;SDS011;61519;60.050;18.582;2022-09-28T06:55:54;3.83;;;1.27;;
73283;SDS011;61519;60.050;18.582;2022-09-28T06:58:20;4.30;;;1.15;;
73283;SDS011;61519;60.050;18.582;2022-09-28T07:00:47;3.93;;;1.00;;
73283;SDS011;61519;60.050;18.582;2022-09-28T07:03:17;4.22;;;1.15;;
73283;SDS011;61519;60.050;18.582;2022-09-28T07:05:45;4.47;;;1.05;;
73283;SDS011;61519;60.050;18.582;2022-09-28T07:08:11;3.88;;;1.25;;
73283;SDS011;61519;60.050;18.582;2022-09-28T07:10:44;4.53;;;1.25;;
73283;SDS011;61519;60.050;18.582;2022-09-28T07:13:11;3.87;;;1.07;;
73283;SDS011;61519;60.050;18.582;2022-09-28T07:15:37;3.55;;;1.00;;
73283;SDS011;61519;60.050;18.582;2022-09-28T07:18:04;8.75;;;1.65;;
73283;SDS011;61519;60.050;18.582;2022-09-28T07:20:31;2.83;;;1.10;;
73283;SDS011;61519;60.050;18.582;2022-09-28T07:22:58;3.58;;;1.10;;
73283;SDS011;61519;60.050;18.582;2022-09-28T07:25:25;2.93;;;1.30;;
73283;SDS011;61519;60.050;18.582;2022-09-28T07:27:57;4.03;;;1.30;;
73283;SDS011;61519;60.050;18.582;2022-09-28T07:30:24;3.97;;;1.02;;
73283;SDS011;61519;60.050;18.582;2022-09-28T07:32:51;6.65;;;1.30;;
73283;SDS011;61519;60.050;18.582;2022-09-28T07:35:20;3.83;;;1.38;;
73283;SDS011;61519;60.050;18.582;2022-09-28T07:37:46;7.43;;;1.03;;
73283;SDS011;61519;60.050;18.582;2022-09-28T07:40:12;3.05;;;1.00;;
73283;SDS011;61519;60.050;18.582;2022-09-28T07:43:02;4.75;;;1.30;;
73283;SDS011;61519;60.050;18.582;2022-09-28T07:45:28;3.78;;;1.20;;
73283;SDS011;61519;60.050;18.582;2022-09-28T07:47:54;6.67;;;1.00;;
73283;SDS011;61519;60.050;18.582;2022-09-28T07:50:20;5.60;;;1.20;;
73283;SDS011;61519;60.050;18.582;2022-09-28T07:52:46;7.30;;;1.00;;
73283;SDS011;61519;60.050;18.582;2022-09-28T07:55:12;4.20;;;1.00;;
73283;SDS011;61519;60.050;18.582;2022-09-28T07:57:37;5.03;;;1.15;;
73283;SDS011;61519;60.050;18.582;2022-09-28T08:00:04;3.15;;;0.90;;
73283;SDS011;61519;60.050;18.582;2022-09-28T08:02:32;3.92;;;1.10;;
73283;SDS011;61519;60.050;18.582;2022-09-28T08:04:59;2.95;;;1.05;;
73283;SDS011;61519;60.050;18.582;2022-09-28T08:07:26;2.10;;;0.90;;
73283;SDS011;61519;60.050;18.582;2022-09-28T08:09:52;4.13;;;1.20;;
73283;SDS011;61519;60.050;18.582;2022-09-28T08:12:17;3.08;;;1.00;;
73283;SDS011;61519;60.050;18.582;2022-09-28T08:14:44;4.37;;;1.10;;
73283;SDS011;61519;60.050;18.582;2022-09-28T08:17:10;3.08;;;0.95;;
73283;SDS011;61519;60.050;18.582;2022-09-28T08:19:35;3.37;;;1.20;;
73283;SDS011;61519;60.050;18.582;2022-09-28T08:22:19;4.15;;;1.40;;
73283;SDS011;61519;60.050;18.582;2022-09-28T08:24:45;3.63;;;1.10;;
73283;SDS011;61519;60.050;18.582;2022-09-28T08:27:11;4.25;;;1.20;;
73283;SDS011;61519;60.050;18.582;2022-09-28T08:29:38;3.75;;;1.00;;
73283;SDS011;61519;60.050;18.582;2022-09-28T08:32:03;4.60;;;1.53;;
73283;SDS011;61519;60.050;18.582;2022-09-28T08:34:32;3.30;;;1.10;;
73283;SDS011;61519;60.050;18.582;2022-09-28T08:37:02;5.32;;;1.48;;
73283;SDS011;61519;60.050;18.582;2022-09-28T08:39:28;3.45;;;1.00;;
73283;SDS011;61519;60.050;18.582;2022-09-28T08:42:55;3.57;;;1.50;;
73283;SDS011;61519;60.050;18.582;2022-09-28T08:44:50;3.90;;;1.17;;
73283;SDS011;61519;60.050;18.582;2022-09-28T08:47:22;2.63;;;1.10;;
73283;SDS011;61519;60.050;18.582;2022-09-28T08:50:10;3.80;;;1.40;;
73283;SDS011;61519;60.050;18.582;2022-09-28T08:52:39;4.60;;;1.20;;
73283;SDS011;61519;60.050;18.582;2022-09-28T08:57:54;4.70;;;1.23;;
73283;SDS011;61519;60.050;18.582;2022-09-28T09:16:46;2.58;;;1.00;;
73283;SDS011;61519;60.050;18.582;2022-09-28T09:19:31;2.80;;;1.10;;
73283;SDS011;61519;60.050;18.582;2022-09-28T09:24:58;3.75;;;1.10;;
73283;SDS011;61519;60.050;18.582;2022-09-28T09:27:44;5.13;;;1.13;;
73283;SDS011;61519;60.050;18.582;2022-09-28T09:30:18;2.40;;;1.00;;
73283;SDS011;61519;60.050;18.582;2022-09-28T09:35:56;2.50;;;0.90;;
73283;SDS011;61519;60.050;18.582;2022-09-28T09:47:27;3.63;;;0.90;;
73283;SDS011;61519;60.050;18.582;2022-09-28T09:52:38;4.18;;;1.33;;
73283;SDS011;61519;60.050;18.582;2022-09-28T09:55:19;5.87;;;1.90;;
73283;SDS011;61519;60.050;18.582;2022-09-28T09:58:11;4.00;;;2.08;;
73283;SDS011;61519;60.050;18.582;2022-09-28T10:00:38;3.92;;;2.05;;
73283;SDS011;61519;60.050;18.582;2022-09-28T10:03:05;3.45;;;1.02;;
73283;SDS011;61519;60.050;18.582;2022-09-28T10:05:34;5.00;;;2.42;;
73283;SDS011;61519;60.050;18.582;2022-09-28T10:08:19;6.47;;;3.17;;
73283;SDS011;61519;60.050;18.582;2022-09-28T10:10:48;7.38;;;3.13;;
73283;SDS011;61519;60.050;18.582;2022-09-28T10:13:15;7.57;;;3.40;;
73283;SDS011;61519;60.050;18.582;2022-09-28T10:15:41;6.67;;;3.67;;
73283;SDS011;61519;60.050;18.582;2022-09-28T10:18:10;3.20;;;1.58;;
73283;SDS011;61519;60.050;18.582;2022-09-28T10:20:38;3.80;;;1.30;;
73283;SDS011;61519;60.050;18.582;2022-09-28T10:23:05;5.03;;;1.48;;
73283;SDS011;61519;60.050;18.582;2022-09-28T10:25:35;9.70;;;5.25;;
73283;SDS011;61519;60.050;18.582;2022-09-28T10:28:02;4.18;;;1.77;;
73283;SDS011;61519;60.050;18.582;2022-09-28T10:30:30;4.50;;;1.20;;
73283;SDS011;61519;60.050;18.582;2022-09-28T10:33:04;3.83;;;1.40;;
73283;SDS011;61519;60.050;18.582;2022-09-28T10:35:30;4.30;;;1.55;;
73283;SDS011;61519;60.050;18.582;2022-09-28T10:38:06;6.27;;;3.03;;
73283;SDS011;61519;60.050;18.582;2022-09-28T10:43:26;6.13;;;2.45;;
73283;SDS011;61519;60.050;18.582;2022-09-28T10:46:01;4.25;;;2.05;;
73283;SDS011;61519;60.050;18.582;2022-09-28T10:51:51;6.70;;;1.90;;
73283;SDS011;61519;60.050;18.582;2022-09-28T10:56:45;5.43;;;2.10;;
73283;SDS011;61519;60.050;18.582;2022-09-28T11:04:37;3.33;;;1.50;;
73283;SDS011;61519;60.050;18.582;2022-09-28T11:07:12;6.75;;;3.40;;
73283;SDS011;61519;60.050;18.582;2022-09-28T11:09:41;4.00;;;1.20;;
73283;SDS011;61519;60.050;18.582;2022-09-28T11:12:13;3.25;;;1.25;;
73283;SDS011;61519;60.050;18.582;2022-09-28T11:14:40;5.22;;;1.90;;
73283;SDS011;61519;60.050;18.582;2022-09-28T11:19:40;4.65;;;1.70;;
73283;SDS011;61519;60.050;18.582;2022-09-28T11:22:39;6.35;;;2.63;;
73283;SDS011;61519;60.050;18.582;2022-09-28T11:28:03;4.80;;;2.10;;
73283;SDS011;61519;60.050;18.582;2022-09-28T11:30:37;4.35;;;1.45;;
73283;SDS011;61519;60.050;18.582;2022-09-28T11:33:33;8.07;;;2.53;;
73283;SDS011;61519;60.050;18.582;2022-09-28T11:50:03;5.28;;;2.20;;
73283;SDS011;61519;60.050;18.582;2022-09-28T11:55:09;4.80;;;1.90;;
73283;SDS011;61519;60.050;18.582;2022-09-28T11:57:37;9.85;;;4.07;;
73283;SDS011;61519;60.050;18.582;2022-09-28T12:00:10;7.55;;;3.33;;
73283;SDS011;61519;60.050;18.582;2022-09-28T12:02:41;4.57;;;1.55;;
73283;SDS011;61519;60.050;18.582;2022-09-28T12:05:30;3.05;;;1.20;;
73283;SDS011;61519;60.050;18.582;2022-09-28T12:08:00;5.40;;;1.10;;
73283;SDS011;61519;60.050;18.582;2022-09-28T12:10:39;7.85;;;3.30;;
73283;SDS011;61519;60.050;18.582;2022-09-28T12:15:43;5.03;;;2.38;;
73283;SDS011;61519;60.050;18.582;2022-09-28T12:18:44;6.35;;;2.80;;
73283;SDS011;61519;60.050;18.582;2022-09-28T12:26:50;10.60;;;3.05;;
73283;SDS011;61519;60.050;18.582;2022-09-28T12:35:03;4.73;;;2.20;;
73283;SDS011;61519;60.050;18.582;2022-09-28T12:40:30;5.18;;;1.83;;
73283;SDS011;61519;60.050;18.582;2022-09-28T13:00:03;3.50;;;1.20;;
73283;SDS011;61519;60.050;18.582;2022-09-28T13:08:51;4.13;;;1.30;;
73283;SDS011;61519;60.050;18.582;2022-09-28T13:16:55;2.80;;;1.00;;
73283;SDS011;61519;60.050;18.582;2022-09-28T13:25:19;3.63;;;1.33;;
73283;SDS011;61519;60.050;18.582;2022-09-28T13:28:08;3.50;;;1.13;;
73283;SDS011;61519;60.050;18.582;2022-09-28T13:30:33;2.87;;;1.07;;
73283;SDS011;61519;60.050;18.582;2022-09-28T13:33:01;3.78;;;1.25;;
73283;SDS011;61519;60.050;18.582;2022-09-28T13:35:28;3.20;;;1.20;;
73283;SDS011;61519;60.050;18.582;2022-09-28T13:49:26;2.83;;;1.23;;
73283;SDS011;61519;60.050;18.582;2022-09-28T13:52:27;3.78;;;1.27;;
73283;SDS011;61519;60.050;18.582;2022-09-28T13:57:43;3.00;;;1.30;;
73283;SDS011;61519;60.050;18.582;2022-09-28T14:00:31;2.90;;;1.35;;
73283;SDS011;61519;60.050;18.582;2022-09-28T14:10:49;3.27;;;1.40;;
73283;SDS011;61519;60.050;18.582;2022-09-28T14:14:22;3.10;;;1.60;;
73283;SDS011;61519;60.050;18.582;2022-09-28T14:16:33;4.03;;;1.58;;
73283;SDS011;61519;60.050;18.582;2022-09-28T14:30:06;4.97;;;1.52;;
73283;SDS011;61519;60.050;18.582;2022-09-28T14:32:34;3.92;;;1.90;;
73283;SDS011;61519;60.050;18.582;2022-09-28T14:35:05;5.13;;;1.50;;
73283;SDS011;61519;60.050;18.582;2022-09-28T14:40:21;3.63;;;1.50;;
73283;SDS011;61519;60.050;18.582;2022-09-28T14:43:24;4.07;;;1.70;;
73283;SDS011;61519;60.050;18.582;2022-09-28T14:48:48;3.85;;;1.52;;
73283;SDS011;61519;60.050;18.582;2022-09-28T14:59:22;5.55;;;1.85;;
73283;SDS011;61519;60.050;18.582;2022-09-28T15:01:59;6.82;;;1.90;;
73283;SDS011;61519;60.050;18.582;2022-09-28T15:04:29;5.82;;;2.08;;
73283;SDS011;61519;60.050;18.582;2022-09-28T15:06:55;5.63;;;2.00;;
73283;SDS011;61519;60.050;18.582;2022-09-28T15:09:30;5.50;;;2.00;;
73283;SDS011;61519;60.050;18.582;2022-09-28T15:14:26;4.10;;;2.13;;
73283;SDS011;61519;60.050;18.582;2022-09-28T15:16:56;4.23;;;1.80;;
73283;SDS011;61519;60.050;18.582;2022-09-28T15:19:36;3.78;;;1.90;;
73283;SDS011;61519;60.050;18.582;2022-09-28T15:22:17;5.82;;;2.38;;
73283;SDS011;61519;60.050;18.582;2022-09-28T15:24:44;3.80;;;1.75;;
73283;SDS011;61519;60.050;18.582;2022-09-28T15:27:18;3.92;;;2.08;;
73283;SDS011;61519;60.050;18.582;2022-09-28T15:32:26;6.65;;;2.15;;
73283;SDS011;61519;60.050;18.582;2022-09-28T15:34:53;6.67;;;2.03;;
73283;SDS011;61519;60.050;18.582;2022-09-28T15:37:28;4.03;;;1.90;;
73283;SDS011;61519;60.050;18.582;2022-09-28T15:39:57;4.07;;;1.83;;
73283;SDS011;61519;60.050;18.582;2022-09-28T15:42:24;4.43;;;1.98;;
73283;SDS011;61519;60.050;18.582;2022-09-28T15:45:03;6.70;;;2.57;;
73283;SDS011;61519;60.050;18.582;2022-09-28T15:47:31;5.05;;;2.53;;
73283;SDS011;61519;60.050;18.582;2022-09-28T15:50:02;6.28;;;2.17;;
73283;SDS011;61519;60.050;18.582;2022-09-28T15:52:35;4.83;;;2.23;;
73283;SDS011;61519;60.050;18.582;2022-09-28T15:58:04;5.78;;;2.35;;
73283;SDS011;61519;60.050;18.582;2022-09-28T16:00:36;4.47;;;1.90;;
73283;SDS011;61519;60.050;18.582;2022-09-28T16:08:21;4.60;;;2.35;;
73283;SDS011;61519;60.050;18.582;2022-09-28T16:13:22;3.78;;;1.92;;
73283;SDS011;61519;60.050;18.582;2022-09-28T16:15:52;6.27;;;2.43;;
73283;SDS011;61519;60.050;18.582;2022-09-28T16:18:22;4.63;;;2.20;;
73283;SDS011;61519;60.050;18.582;2022-09-28T16:23:48;4.40;;;2.40;;
73283;SDS011;61519;60.050;18.582;2022-09-28T16:26:15;6.07;;;2.27;;
73283;SDS011;61519;60.050;18.582;2022-09-28T16:28:53;4.10;;;2.30;;
73283;SDS011;61519;60.050;18.582;2022-09-28T16:36:18;4.35;;;2.58;;
73283;SDS011;61519;60.050;18.582;2022-09-28T16:38:46;4.30;;;2.27;;
73283;SDS011;61519;60.050;18.582;2022-09-28T16:41:12;5.18;;;2.22;;
73283;SDS011;61519;60.050;18.582;2022-09-28T16:43:39;4.13;;;2.10;;
73283;SDS011;61519;60.050;18.582;2022-09-28T16:46:05;4.10;;;2.07;;
73283;SDS011;61519;60.050;18.582;2022-09-28T16:48:38;4.30;;;2.05;;
73283;SDS011;61519;60.050;18.582;2022-09-28T16:51:05;4.30;;;2.28;;
73283;SDS011;61519;60.050;18.582;2022-09-28T16:53:31;7.53;;;2.67;;
73283;SDS011;61519;60.050;18.582;2022-09-28T16:56:15;5.25;;;2.15;;
73283;SDS011;61519;60.050;18.582;2022-09-28T16:58:40;5.33;;;2.57;;
73283;SDS011;61519;60.050;18.582;2022-09-28T17:01:08;5.70;;;2.47;;
73283;SDS011;61519;60.050;18.582;2022-09-28T17:03:34;4.65;;;2.40;;
73283;SDS011;61519;60.050;18.582;2022-09-28T17:06:01;5.00;;;2.73;;
73283;SDS011;61519;60.050;18.582;2022-09-28T17:08:28;6.22;;;2.33;;
73283;SDS011;61519;60.050;18.582;2022-09-28T17:10:57;4.20;;;1.93;;
73283;SDS011;61519;60.050;18.582;2022-09-28T17:13:24;7.05;;;2.58;;
73283;SDS011;61519;60.050;18.582;2022-09-28T17:16:02;7.13;;;2.70;;
73283;SDS011;61519;60.050;18.582;2022-09-28T17:18:30;3.40;;;1.80;;
73283;SDS011;61519;60.050;18.582;2022-09-28T17:20:56;4.57;;;1.88;;
73283;SDS011;61519;60.050;18.582;2022-09-28T17:23:23;6.13;;;2.50;;
73283;SDS011;61519;60.050;18.582;2022-09-28T17:25:50;7.13;;;2.60;;
73283;SDS011;61519;60.050;18.582;2022-09-28T17:28:22;6.97;;;3.05;;
73283;SDS011;61519;60.050;18.582;2022-09-28T17:30:50;5.50;;;2.20;;
73283;SDS011;61519;60.050;18.582;2022-09-28T17:33:16;6.72;;;3.20;;
73283;SDS011;61519;60.050;18.582;2022-09-28T17:35:42;4.77;;;2.53;;
73283;SDS011;61519;60.050;18.582;2022-09-28T17:38:11;4.47;;;2.40;;
73283;SDS011;61519;60.050;18.582;2022-09-28T17:40:38;5.38;;;2.28;;
73283;SDS011;61519;60.050;18.582;2022-09-28T17:43:04;4.97;;;2.13;;
73283;SDS011;61519;60.050;18.582;2022-09-28T17:45:30;5.57;;;2.10;;
73283;SDS011;61519;60.050;18.582;2022-09-28T17:47:57;5.10;;;2.50;;
73283;SDS011;61519;60.050;18.582;2022-09-28T17:50:24;4.33;;;2.53;;
73283;SDS011;61519;60.050;18.582;2022-09-28T17:52:54;4.75;;;2.67;;
73283;SDS011;61519;60.050;18.582;2022-09-28T17:55:23;5.22;;;2.22;;
73283;SDS011;61519;60.050;18.582;2022-09-28T17:57:52;4.10;;;1.95;;
73283;SDS011;61519;60.050;18.582;2022-09-28T18:00:18;5.22;;;2.92;;
73283;SDS011;61519;60.050;18.582;2022-09-28T18:02:44;5.93;;;2.40;;
73283;SDS011;61519;60.050;18.582;2022-09-28T18:05:10;4.40;;;2.20;;
73283;SDS011;61519;60.050;18.582;2022-09-28T18:07:38;4.45;;;2.50;;
73283;SDS011;61519;60.050;18.582;2022-09-28T18:10:14;4.38;;;2.25;;
73283;SDS011;61519;60.050;18.582;2022-09-28T18:12:45;4.85;;;2.78;;
73283;SDS011;61519;60.050;18.582;2022-09-28T18:15:11;4.20;;;2.27;;
73283;SDS011;61519;60.050;18.582;2022-09-28T18:17:37;4.25;;;2.00;;
73283;SDS011;61519;60.050;18.582;2022-09-28T18:20:03;4.93;;;2.63;;
73283;SDS011;61519;60.050;18.582;2022-09-28T18:22:30;4.43;;;2.22;;
73283;SDS011;61519;60.050;18.582;2022-09-28T18:24:55;4.60;;;2.37;;
73283;SDS011;61519;60.050;18.582;2022-09-28T18:27:20;5.55;;;2.50;;
73283;SDS011;61519;60.050;18.582;2022-09-28T18:29:46;3.80;;;1.90;;
73283;SDS011;61519;60.050;18.582;2022-09-28T18:32:11;4.30;;;2.10;;
73283;SDS011;61519;60.050;18.582;2022-09-28T18:34:37;5.50;;;2.63;;
73283;SDS011;61519;60.050;18.582;2022-09-28T18:37:03;6.43;;;2.60;;
73283;SDS011;61519;60.050;18.582;2022-09-28T18:39:29;4.53;;;2.00;;
73283;SDS011;61519;60.050;18.582;2022-09-28T18:41:55;4.60;;;2.28;;